Time;durP1;ratioP1;P1;durP2;ratioP2;P2;SDS_P1;SDS_P2;PMS_P1;PMS_P2;Temp;Humidity;BMP_temperature;BMP_pressure;BME280_temperature;BME280_humidity;BME280_pressure;Samples;Min_cycle;Max_cycle;Signal;HPM_P1;HPM_P2
2024/03/09 00:00:03;;;;;;;17.10;15.20;;;;;;;;;;5052453;28;20382;-81
2024/03/09 00:02:29;;;;;;;16.93;14.63;;;;;;;;;;5052350;28;20447;-81
2024/03/09 00:04:55;;;;;;;14.80;12.98;;;;;;;;;;5052490;28;20413;-81
2024/03/09 00:07:24;;;;;;;15.45;13.85;;;;;;;;;;5052342;28;20386;-81
2024/03/09 00:09:50;;;;;;;17.65;15.20;;;;;;;;;;5052242;28;20684;-81
2024/03/09 00:12:19;;;;;;;18.25;15.93;;;;;;;;;;5052351;28;20408;-81
2024/03/09 00:14:45;;;;;;;15.73;13.88;;;;;;;;;;5052336;28;20387;-81
2024/03/09 00:17:15;;;;;;;18.38;16.17;;;;;;;;;;5050720;28;20806;-81
2024/03/09 00:19:41;;;;;;;17.90;14.63;;;;;;;;;;5052270;28;20533;-81
2024/03/09 00:22:07;;;;;;;16.73;14.23;;;;;;;;;;5052909;28;20377;-81
2024/03/09 00:24:33;;;;;;;16.83;14.45;;;;;;;;;;5055668;28;20373;-81
2024/03/09 00:26:59;;;;;;;18.50;14.77;;;;;;;;;;5055860;28;20428;-81
2024/03/09 00:29:25;;;;;;;16.48;14.30;;;;;;;;;;5055843;28;20419;-81
2024/03/09 00:31:52;;;;;;;15.15;13.55;;;;;;;;;;5054770;28;20389;-80
2024/03/09 00:34:19;;;;;;;16.17;14.48;;;;;;;;;;5055887;28;20373;-81
2024/03/09 00:36:46;;;;;;;16.98;14.95;;;;;;;;;;5055655;28;20696;-81
2024/03/09 00:39:12;;;;;;;16.75;14.05;;;;;;;;;;5055693;28;20914;-81
2024/03/09 00:41:42;;;;;;;15.73;14.05;;;;;;;;;;5054825;28;20425;-81
2024/03/09 00:44:09;;;;;;;15.15;13.65;;;;;;;;;;5055631;28;21081;-81
2024/03/09 00:46:36;;;;;;;15.85;14.13;;;;;;;;;;5055645;28;20490;-81
2024/03/09 00:49:02;;;;;;;16.67;13.73;;;;;;;;;;5055035;28;20405;-81
2024/03/09 00:51:31;;;;;;;15.63;13.77;;;;;;;;;;5055614;28;20402;-81
2024/03/09 00:53:57;;;;;;;15.17;13.53;;;;;;;;;;5055318;28;20382;-81
2024/03/09 00:56:23;;;;;;;14.05;12.65;;;;;;;;;;5055147;28;20390;-80
2024/03/09 00:58:52;;;;;;;15.30;13.50;;;;;;;;;;5054016;28;20457;-81
2024/03/09 01:01:18;;;;;;;16.63;14.13;;;;;;;;;;5055397;28;20383;-81
2024/03/09 01:03:45;;;;;;;15.00;13.32;;;;;;;;;;5054943;28;20448;-81
2024/03/09 01:06:11;;;;;;;15.85;13.60;;;;;;;;;;5055279;28;20484;-81
2024/03/09 01:08:38;;;;;;;15.77;14.10;;;;;;;;;;5054003;28;20465;-80
2024/03/09 01:11:05;;;;;;;16.05;13.95;;;;;;;;;;5055233;28;20385;-81
2024/03/09 01:13:31;;;;;;;15.13;13.52;;;;;;;;;;5055017;28;20385;-80
2024/03/09 01:15:58;;;;;;;15.30;13.60;;;;;;;;;;5054062;28;20386;-80
2024/03/09 01:18:24;;;;;;;15.45;13.85;;;;;;;;;;5055245;28;20384;-81
2024/03/09 01:20:50;;;;;;;17.13;14.52;;;;;;;;;;5054941;28;20465;-80
2024/03/09 01:23:15;;;;;;;14.93;13.43;;;;;;;;;;5053406;28;20747;-80
2024/03/09 01:25:42;;;;;;;14.75;12.98;;;;;;;;;;5054975;28;20463;-81
2024/03/09 01:28:08;;;;;;;15.60;13.35;;;;;;;;;;5054824;28;20379;-81
2024/03/09 01:30:34;;;;;;;15.45;13.60;;;;;;;;;;5054672;28;20381;-80
2024/03/09 01:33:00;;;;;;;14.63;13.15;;;;;;;;;;5054681;28;20373;-81
2024/03/09 01:35:28;;;;;;;15.20;13.55;;;;;;;;;;5053721;28;20392;-80
2024/03/09 01:37:54;;;;;;;16.10;13.60;;;;;;;;;;5043716;28;20415;-81
2024/03/09 01:40:20;;;;;;;15.00;13.13;;;;;;;;;;5054633;28;20448;-80
2024/03/09 01:42:46;;;;;;;15.52;13.85;;;;;;;;;;5054907;28;20448;-80
2024/03/09 01:45:12;;;;;;;17.15;14.65;;;;;;;;;;5054452;28;20921;-80
2024/03/09 01:47:39;;;;;;;16.27;14.50;;;;;;;;;;5054010;28;20381;-80
2024/03/09 01:50:10;;;;;;;15.98;14.18;;;;;;;;;;5054137;28;20437;-80
2024/03/09 01:52:36;;;;;;;15.77;14.17;;;;;;;;;;5054820;28;20374;-80
2024/03/09 01:55:06;;;;;;;15.80;14.10;;;;;;;;;;5054192;28;20385;-80
2024/03/09 01:57:32;;;;;;;16.33;13.95;;;;;;;;;;5052035;28;20388;-80
2024/03/09 01:59:58;;;;;;;15.52;13.93;;;;;;;;;;5054181;28;20374;-80
2024/03/09 02:02:25;;;;;;;18.97;14.50;;;;;;;;;;5054292;28;20392;-80
2024/03/09 02:04:51;;;;;;;14.85;13.27;;;;;;;;;;5053914;28;20736;-80
2024/03/09 02:07:17;;;;;;;15.18;13.57;;;;;;;;;;5052619;28;20406;-80
2024/03/09 02:09:44;;;;;;;16.52;14.13;;;;;;;;;;5053625;28;20435;-80
2024/03/09 02:12:10;;;;;;;16.08;13.82;;;;;;;;;;5053973;28;20464;-80
2024/03/09 02:14:36;;;;;;;16.20;14.00;;;;;;;;;;5053779;28;20388;-80
2024/03/09 02:17:07;;;;;;;15.33;13.40;;;;;;;;;;5054469;28;20377;-81
2024/03/09 02:19:35;;;;;;;15.77;14.18;;;;;;;;;;5053746;28;20388;-81
2024/03/09 02:22:00;;;;;;;16.87;14.97;;;;;;;;;;5053266;28;20795;-81
2024/03/09 02:24:34;;;;;;;18.35;15.38;;;;;;;;;;5053800;28;20389;-81
2024/03/09 02:27:00;;;;;;;16.65;14.23;;;;;;;;;;5053395;28;20416;-81
2024/03/09 02:29:26;;;;;;;15.93;14.23;;;;;;;;;;5053634;28;20824;-81
2024/03/09 02:31:55;;;;;;;17.63;14.45;;;;;;;;;;5053531;28;20434;-81
2024/03/09 02:34:21;;;;;;;15.60;13.80;;;;;;;;;;5053687;28;20381;-81
2024/03/09 02:36:47;;;;;;;15.47;13.83;;;;;;;;;;5052612;28;20891;-81
2024/03/09 02:39:13;;;;;;;26.98;14.80;;;;;;;;;;5053185;28;20398;-81
2024/03/09 02:41:39;;;;;;;17.98;15.02;;;;;;;;;;5053457;28;20419;-81
2024/03/09 02:44:05;;;;;;;15.95;14.05;;;;;;;;;;5053279;28;20451;-81
2024/03/09 02:46:32;;;;;;;16.48;14.73;;;;;;;;;;5052227;28;20413;-81
2024/03/09 02:48:58;;;;;;;15.63;13.55;;;;;;;;;;5053128;28;20409;-81
2024/03/09 02:51:27;;;;;;;15.95;14.25;;;;;;;;;;5053354;28;20782;-81
2024/03/09 02:53:53;;;;;;;15.55;13.95;;;;;;;;;;5051451;28;20397;-81
2024/03/09 02:56:19;;;;;;;15.15;13.55;;;;;;;;;;5052996;28;20468;-80
2024/03/09 02:58:45;;;;;;;17.10;14.75;;;;;;;;;;5052925;28;20373;-81
2024/03/09 03:01:13;;;;;;;16.90;14.27;;;;;;;;;;5052574;28;20413;-80
2024/03/09 03:06:12;;;;;;;15.93;14.23;;;;;;;;;;5054402;28;20413;-80
2024/03/09 03:08:38;;;;;;;16.95;14.85;;;;;;;;;;5053547;28;20389;-80
2024/03/09 03:11:04;;;;;;;18.33;15.15;;;;;;;;;;5053430;28;20373;-80
2024/03/09 03:13:30;;;;;;;16.45;14.35;;;;;;;;;;5052410;28;20392;-80
2024/03/09 03:15:56;;;;;;;19.38;15.38;;;;;;;;;;5053615;28;20401;-81
2024/03/09 03:18:23;;;;;;;18.42;14.82;;;;;;;;;;5052367;28;20389;-81
2024/03/09 03:20:49;;;;;;;17.25;15.30;;;;;;;;;;5053541;28;20847;-81
2024/03/09 03:23:16;;;;;;;17.90;15.95;;;;;;;;;;5054008;28;20396;-81
2024/03/09 03:25:44;;;;;;;17.83;15.70;;;;;;;;;;5052800;28;20423;-81
2024/03/09 03:28:10;;;;;;;16.52;14.25;;;;;;;;;;5053407;28;20901;-81
2024/03/09 03:30:37;;;;;;;14.82;13.35;;;;;;;;;;5051962;28;20465;-81
2024/03/09 03:33:03;;;;;;;16.83;14.18;;;;;;;;;;5053432;28;20808;-81
2024/03/09 03:35:31;;;;;;;14.98;13.45;;;;;;;;;;5052624;28;20389;-81
2024/03/09 03:37:59;;;;;;;14.77;13.27;;;;;;;;;;5053137;28;20385;-81
2024/03/09 03:40:25;;;;;;;18.52;15.38;;;;;;;;;;5053061;28;20385;-81
2024/03/09 03:42:51;;;;;;;16.95;14.20;;;;;;;;;;5052888;28;20835;-81
2024/03/09 03:45:17;;;;;;;15.10;13.50;;;;;;;;;;5051301;28;20480;-80
2024/03/09 03:47:44;;;;;;;15.05;13.48;;;;;;;;;;5052796;28;20381;-80
2024/03/09 03:50:10;;;;;;;15.27;13.55;;;;;;;;;;5052515;28;20497;-80
2024/03/09 03:52:40;;;;;;;15.90;14.10;;;;;;;;;;5052749;28;20385;-80
2024/03/09 03:55:11;;;;;;;15.65;13.95;;;;;;;;;;5052658;28;20380;-80
2024/03/09 03:57:38;;;;;;;18.30;14.98;;;;;;;;;;5053283;28;20394;-80
2024/03/09 04:00:06;;;;;;;16.05;13.60;;;;;;;;;;5055226;28;20476;-80
2024/03/09 04:02:35;;;;;;;14.80;12.80;;;;;;;;;;5056191;28;20391;-81
2024/03/09 04:05:02;;;;;;;14.47;12.93;;;;;;;;;;5056095;28;20381;-81
2024/03/09 04:07:28;;;;;;;16.42;13.95;;;;;;;;;;5055624;28;20443;-80
2024/03/09 04:09:54;;;;;;;19.13;16.40;;;;;;;;;;5056724;28;20382;-80
2024/03/09 04:12:20;;;;;;;16.17;14.48;;;;;;;;;;5056476;28;20381;-80
2024/03/09 04:14:49;;;;;;;16.85;14.27;;;;;;;;;;5054663;28;20750;-80
2024/03/09 04:17:17;;;;;;;15.18;13.57;;;;;;;;;;5056765;28;20867;-81
2024/03/09 04:19:43;;;;;;;16.10;14.25;;;;;;;;;;5056868;28;20420;-81
2024/03/09 04:22:12;;;;;;;20.80;15.80;;;;;;;;;;5055359;28;20389;-80
2024/03/09 04:24:38;;;;;;;21.08;16.77;;;;;;;;;;5056423;28;20421;-80
2024/03/09 04:27:10;;;;;;;21.27;17.90;;;;;;;;;;5056453;28;20401;-81
2024/03/09 04:29:36;;;;;;;24.92;19.50;;;;;;;;;;5056400;28;20374;-81
2024/03/09 04:32:02;;;;;;;25.35;19.85;;;;;;;;;;5055132;28;20743;-81
2024/03/09 04:34:28;;;;;;;25.55;20.35;;;;;;;;;;5054867;28;20407;-81
2024/03/09 04:36:56;;;;;;;23.80;20.00;;;;;;;;;;5055971;28;20401;-81
2024/03/09 04:39:22;;;;;;;25.10;19.88;;;;;;;;;;5056310;28;20389;-81
2024/03/09 04:41:48;;;;;;;24.45;19.75;;;;;;;;;;5055786;28;20407;-81
2024/03/09 04:44:14;;;;;;;24.90;20.37;;;;;;;;;;5053017;28;20404;-81
2024/03/09 04:46:43;;;;;;;25.58;19.98;;;;;;;;;;5054519;28;20484;-81
2024/03/09 04:49:11;;;;;;;24.42;18.63;;;;;;;;;;5056060;28;20456;-81
2024/03/09 04:51:37;;;;;;;26.27;19.73;;;;;;;;;;5055840;28;20510;-81
2024/03/09 04:54:06;;;;;;;24.70;19.73;;;;;;;;;;5055633;28;20854;-81
2024/03/09 04:56:32;;;;;;;21.25;17.98;;;;;;;;;;5055915;28;20386;-81
2024/03/09 04:58:57;;;;;;;21.35;18.02;;;;;;;;;;5054446;28;20382;-81
2024/03/09 05:01:23;;;;;;;23.25;18.63;;;;;;;;;;5056201;28;20397;-81
2024/03/09 05:03:49;;;;;;;25.57;20.10;;;;;;;;;;5054456;28;20385;-81
2024/03/09 05:06:15;;;;;;;26.00;20.13;;;;;;;;;;5056670;28;20412;-81
2024/03/09 05:08:44;;;;;;;23.52;18.27;;;;;;;;;;5053631;28;20385;-81
2024/03/09 05:11:12;;;;;;;26.30;19.65;;;;;;;;;;5056355;28;20405;-81
2024/03/09 05:13:38;;;;;;;24.38;19.20;;;;;;;;;;5054668;28;20388;-81
2024/03/09 05:16:04;;;;;;;25.00;18.25;;;;;;;;;;5053693;28;20428;-82
2024/03/09 05:18:30;;;;;;;24.35;18.52;;;;;;;;;;5056435;28;20392;-82
2024/03/09 05:20:57;;;;;;;23.00;17.80;;;;;;;;;;5056271;28;20389;-81
2024/03/09 05:23:23;;;;;;;25.45;19.08;;;;;;;;;;5056401;28;20392;-82
2024/03/09 05:25:49;;;;;;;22.08;18.30;;;;;;;;;;5056020;28;20409;-82
2024/03/09 05:28:15;;;;;;;22.65;18.35;;;;;;;;;;5055880;28;20778;-82
2024/03/09 05:30:42;;;;;;;23.33;19.20;;;;;;;;;;5056031;28;20858;-82
2024/03/09 05:33:08;;;;;;;24.10;19.08;;;;;;;;;;5055738;28;20783;-82
2024/03/09 05:35:34;;;;;;;23.23;18.88;;;;;;;;;;5055981;28;20389;-82
2024/03/09 05:38:04;;;;;;;25.02;19.33;;;;;;;;;;5056171;28;20420;-81
2024/03/09 05:40:31;;;;;;;23.23;18.33;;;;;;;;;;5055367;28;20402;-82
2024/03/09 05:42:58;;;;;;;25.50;19.35;;;;;;;;;;5055934;28;20385;-82
2024/03/09 05:45:25;;;;;;;22.63;18.58;;;;;;;;;;5055001;28;20401;-82
2024/03/09 05:47:55;;;;;;;23.27;18.73;;;;;;;;;;5055382;28;20392;-81
2024/03/09 05:50:32;;;;;;;23.33;18.15;;;;;;;;;;5054625;28;20417;-81
2024/03/09 05:52:59;;;;;;;25.02;18.92;;;;;;;;;;5054976;28;20385;-82
2024/03/09 05:55:26;;;;;;;23.95;18.73;;;;;;;;;;5054207;28;20431;-82
2024/03/09 05:57:52;;;;;;;24.08;18.42;;;;;;;;;;5054943;28;20407;-81
2024/03/09 06:00:19;;;;;;;24.10;18.77;;;;;;;;;;5055025;28;20874;-82
2024/03/09 06:02:48;;;;;;;24.30;18.90;;;;;;;;;;5055068;28;20417;-82
2024/03/09 06:05:15;;;;;;;25.48;19.05;;;;;;;;;;5054986;28;20383;-81
2024/03/09 06:07:41;;;;;;;27.08;19.67;;;;;;;;;;5054616;28;20376;-81
2024/03/09 06:10:08;;;;;;;24.33;18.60;;;;;;;;;;5053870;28;20382;-81
2024/03/09 06:12:38;;;;;;;23.57;18.47;;;;;;;;;;5054467;28;20440;-81
2024/03/09 06:15:07;;;;;;;23.10;17.95;;;;;;;;;;5054416;28;20759;-81
2024/03/09 06:17:33;;;;;;;22.55;17.85;;;;;;;;;;5054596;28;20436;-81
2024/03/09 06:20:02;;;;;;;24.75;18.52;;;;;;;;;;5053971;28;20390;-81
2024/03/09 06:22:30;;;;;;;22.77;18.08;;;;;;;;;;5054502;28;20378;-81
2024/03/09 06:24:56;;;;;;;23.55;18.80;;;;;;;;;;5054801;28;20778;-81
2024/03/09 06:27:22;;;;;;;21.75;17.40;;;;;;;;;;5054969;28;20422;-81
2024/03/09 06:29:49;;;;;;;25.33;19.15;;;;;;;;;;5054210;28;20403;-81
2024/03/09 06:32:15;;;;;;;25.42;18.60;;;;;;;;;;5054837;28;20381;-81
2024/03/09 06:34:43;;;;;;;23.08;18.48;;;;;;;;;;5054454;28;20373;-81
2024/03/09 06:37:09;;;;;;;23.58;18.75;;;;;;;;;;5054194;28;20945;-81
2024/03/09 06:39:38;;;;;;;23.08;18.40;;;;;;;;;;5052813;28;20443;-81
2024/03/09 06:42:06;;;;;;;21.42;18.13;;;;;;;;;;5053664;28;20464;-81
2024/03/09 06:44:32;;;;;;;24.17;18.80;;;;;;;;;;5053942;28;20867;-81
2024/03/09 06:46:58;;;;;;;23.33;18.15;;;;;;;;;;5053511;28;20412;-81
2024/03/09 06:49:25;;;;;;;23.35;18.63;;;;;;;;;;5053274;28;20417;-81
2024/03/09 06:51:51;;;;;;;24.23;19.05;;;;;;;;;;5053678;28;20380;-81
2024/03/09 06:54:17;;;;;;;22.23;17.85;;;;;;;;;;5053344;28;20382;-81
2024/03/09 06:56:43;;;;;;;21.77;18.10;;;;;;;;;;5054158;28;20839;-81
2024/03/09 06:59:10;;;;;;;24.43;18.80;;;;;;;;;;5053534;28;20392;-81
2024/03/09 07:01:37;;;;;;;22.73;17.98;;;;;;;;;;5052881;28;20464;-80
2024/03/09 07:04:03;;;;;;;22.55;18.23;;;;;;;;;;5054259;28;20381;-81
2024/03/09 07:06:33;;;;;;;21.98;17.50;;;;;;;;;;5051098;28;20437;-81
2024/03/09 07:08:59;;;;;;;23.93;19.00;;;;;;;;;;5054155;28;20431;-81
2024/03/09 07:11:25;;;;;;;25.67;18.97;;;;;;;;;;5053906;28;20377;-81
2024/03/09 07:13:52;;;;;;;24.77;18.95;;;;;;;;;;5054182;28;20378;-81
2024/03/09 07:16:18;;;;;;;24.38;18.58;;;;;;;;;;5054214;28;20739;-81
2024/03/09 07:18:45;;;;;;;24.00;18.83;;;;;;;;;;5051993;28;20973;-82
2024/03/09 07:21:12;;;;;;;23.58;18.60;;;;;;;;;;5054743;28;20601;-82
2024/03/09 07:23:38;;;;;;;22.77;18.53;;;;;;;;;;5053739;28;20396;-82
2024/03/09 07:26:05;;;;;;;23.15;18.73;;;;;;;;;;5053270;28;20495;-82
2024/03/09 07:28:31;;;;;;;23.33;18.73;;;;;;;;;;5053582;28;20899;-82
2024/03/09 07:30:57;;;;;;;22.52;18.13;;;;;;;;;;5053568;28;20438;-82
2024/03/09 07:33:24;;;;;;;23.83;19.00;;;;;;;;;;5053131;28;20384;-82
2024/03/09 07:35:52;;;;;;;24.03;18.67;;;;;;;;;;5053545;28;20484;-82
2024/03/09 07:38:18;;;;;;;23.58;18.80;;;;;;;;;;5052956;28;20392;-82
2024/03/09 07:40:44;;;;;;;23.60;18.73;;;;;;;;;;5053423;28;20381;-82
2024/03/09 07:43:17;;;;;;;21.83;18.20;;;;;;;;;;5053346;28;20385;-82
2024/03/09 07:45:43;;;;;;;22.97;17.83;;;;;;;;;;5053084;28;20529;-82
2024/03/09 07:48:16;;;;;;;20.48;17.23;;;;;;;;;;5052543;28;20464;-82
2024/03/09 07:50:48;;;;;;;23.77;18.50;;;;;;;;;;5053393;28;20409;-82
2024/03/09 07:53:14;;;;;;;21.55;18.20;;;;;;;;;;5054091;28;20372;-82
2024/03/09 07:55:40;;;;;;;22.67;18.00;;;;;;;;;;5052788;28;20419;-82
2024/03/09 07:58:06;;;;;;;20.92;17.75;;;;;;;;;;5053082;28;20475;-82
2024/03/09 08:00:35;;;;;;;21.83;17.80;;;;;;;;;;5053510;28;20489;-82
2024/03/09 08:03:01;;;;;;;21.77;17.83;;;;;;;;;;5052785;28;20771;-82
2024/03/09 08:05:31;;;;;;;22.73;18.08;;;;;;;;;;5052951;28;20876;-82
2024/03/09 08:07:58;;;;;;;21.47;18.00;;;;;;;;;;5052842;28;20790;-82
2024/03/09 08:10:26;;;;;;;21.88;17.40;;;;;;;;;;5053230;28;20377;-82
2024/03/09 08:12:53;;;;;;;23.65;18.40;;;;;;;;;;5052823;28;20393;-82
2024/03/09 08:15:19;;;;;;;22.10;17.17;;;;;;;;;;5052792;28;20377;-82
2024/03/09 08:17:49;;;;;;;22.80;18.35;;;;;;;;;;5053043;28;20385;-82
2024/03/09 08:20:15;;;;;;;21.83;18.00;;;;;;;;;;5053025;28;20385;-82
2024/03/09 08:22:42;;;;;;;22.60;18.40;;;;;;;;;;5053274;28;20373;-82
2024/03/09 08:25:11;;;;;;;22.63;18.23;;;;;;;;;;5053280;28;20377;-82
2024/03/09 08:27:38;;;;;;;37.80;26.60;;;;;;;;;;5053532;28;20389;-82
2024/03/09 08:30:07;;;;;;;23.38;18.60;;;;;;;;;;5053646;28;20385;-82
2024/03/09 08:32:35;;;;;;;29.60;21.13;;;;;;;;;;5053141;28;20708;-82
2024/03/09 08:35:08;;;;;;;26.92;20.52;;;;;;;;;;5053423;28;20863;-82
2024/03/09 08:37:36;;;;;;;22.23;18.60;;;;;;;;;;5053010;28;20509;-82
2024/03/09 08:40:05;;;;;;;23.85;19.20;;;;;;;;;;5054028;28;20488;-83
2024/03/09 08:42:31;;;;;;;23.93;19.43;;;;;;;;;;5053552;28;20382;-82
2024/03/09 08:44:58;;;;;;;24.30;19.80;;;;;;;;;;5054777;28;20385;-82
2024/03/09 08:47:25;;;;;;;27.65;21.30;;;;;;;;;;5056448;28;20411;-82
2024/03/09 08:49:51;;;;;;;26.98;20.45;;;;;;;;;;5055641;28;20405;-82
2024/03/09 08:52:18;;;;;;;22.73;19.33;;;;;;;;;;5056561;28;20391;-82
2024/03/09 08:54:44;;;;;;;24.67;19.63;;;;;;;;;;5056933;28;20855;-82
2024/03/09 08:57:11;;;;;;;23.65;19.27;;;;;;;;;;5056314;28;20893;-82
2024/03/09 08:59:38;;;;;;;22.15;18.65;;;;;;;;;;5051482;28;20390;-82
2024/03/09 09:02:06;;;;;;;24.27;19.27;;;;;;;;;;5055984;28;20445;-82
2024/03/09 09:04:34;;;;;;;22.83;19.37;;;;;;;;;;5056500;28;20827;-82
2024/03/09 09:07:00;;;;;;;25.50;19.33;;;;;;;;;;5056135;28;20409;-82
2024/03/09 09:09:26;;;;;;;24.63;19.27;;;;;;;;;;5041511;28;20373;-82
2024/03/09 09:11:53;;;;;;;25.63;19.17;;;;;;;;;;5055744;28;20381;-82
2024/03/09 09:14:19;;;;;;;20.65;17.83;;;;;;;;;;5055597;28;20370;-81
2024/03/09 09:16:48;;;;;;;26.85;20.17;;;;;;;;;;5055699;28;20384;-82
2024/03/09 09:19:14;;;;;;;36.38;27.30;;;;;;;;;;5055770;28;20735;-82
2024/03/09 09:21:40;;;;;;;23.77;19.33;;;;;;;;;;5055942;28;20389;-82
2024/03/09 09:24:06;;;;;;;24.10;19.92;;;;;;;;;;5055930;28;20847;-82
2024/03/09 09:26:33;;;;;;;23.25;19.50;;;;;;;;;;5055735;28;20425;-80
2024/03/09 09:29:03;;;;;;;28.35;22.50;;;;;;;;;;5055463;28;20374;-81
2024/03/09 09:31:30;;;;;;;25.98;19.67;;;;;;;;;;5055618;28;20849;-80
2024/03/09 09:33:56;;;;;;;25.50;20.20;;;;;;;;;;5055681;28;20378;-81
2024/03/09 09:36:22;;;;;;;25.88;20.88;;;;;;;;;;5055459;28;20954;-81
2024/03/09 09:38:48;;;;;;;23.48;19.33;;;;;;;;;;5055101;28;20393;-81
2024/03/09 09:41:16;;;;;;;26.60;20.63;;;;;;;;;;5054844;28;20405;-81
2024/03/09 09:43:42;;;;;;;22.67;19.00;;;;;;;;;;5054902;28;20397;-81
2024/03/09 09:46:08;;;;;;;23.35;18.80;;;;;;;;;;5054689;28;20412;-81
2024/03/09 09:48:38;;;;;;;25.27;19.20;;;;;;;;;;5054705;28;20453;-81
2024/03/09 09:51:06;;;;;;;23.80;19.75;;;;;;;;;;5055036;28;20409;-81
2024/03/09 09:53:32;;;;;;;24.33;18.92;;;;;;;;;;5055292;28;20381;-81
2024/03/09 09:56:02;;;;;;;22.53;18.50;;;;;;;;;;5040462;28;20385;-81
2024/03/09 09:58:28;;;;;;;23.47;17.93;;;;;;;;;;5054581;28;20432;-80
2024/03/09 10:00:54;;;;;;;18.77;16.00;;;;;;;;;;5054065;28;20385;-80
2024/03/09 10:03:21;;;;;;;16.67;14.88;;;;;;;;;;5053189;28;20381;-81
2024/03/09 10:05:48;;;;;;;22.20;18.20;;;;;;;;;;5054099;28;20444;-80
2024/03/09 10:08:14;;;;;;;18.23;15.65;;;;;;;;;;5054032;28;20378;-82
2024/03/09 10:10:43;;;;;;;20.33;16.50;;;;;;;;;;5052786;28;20449;-82
2024/03/09 10:13:13;;;;;;;20.13;16.27;;;;;;;;;;5054565;28;20382;-82
2024/03/09 10:15:44;;;;;;;18.42;16.35;;;;;;;;;;5054525;28;20871;-82
2024/03/09 10:18:11;;;;;;;59.15;38.00;;;;;;;;;;5055003;28;20736;-82
2024/03/09 10:20:38;;;;;;;21.00;17.27;;;;;;;;;;5054278;28;20393;-81
2024/03/09 10:23:04;;;;;;;24.83;19.55;;;;;;;;;;5054275;28;20384;-82
2024/03/09 10:25:35;;;;;;;17.63;13.73;;;;;;;;;;5054166;28;20388;-83
2024/03/09 10:28:01;;;;;;;17.52;14.95;;;;;;;;;;5054649;28;20452;-83
2024/03/09 10:30:27;;;;;;;16.95;14.20;;;;;;;;;;5054424;28;20420;-83
2024/03/09 10:32:58;;;;;;;14.68;13.10;;;;;;;;;;5054915;28;20396;-83
2024/03/09 10:35:24;;;;;;;12.73;11.40;;;;;;;;;;5054334;28;20855;-82
2024/03/09 10:37:53;;;;;;;10.80;9.80;;;;;;;;;;5054606;28;20431;-82
2024/03/09 10:40:20;;;;;;;10.73;9.73;;;;;;;;;;5053959;28;20366;-83
2024/03/09 10:42:50;;;;;;;10.77;9.70;;;;;;;;;;5053920;28;20407;-83
2024/03/09 10:45:20;;;;;;;11.55;10.45;;;;;;;;;;5053277;28;20405;-82
2024/03/09 10:47:57;;;;;;;9.38;8.57;;;;;;;;;;5053894;28;20388;-82
2024/03/09 10:50:24;;;;;;;11.43;10.32;;;;;;;;;;5053376;28;20397;-82
2024/03/09 10:53:07;;;;;;;10.73;9.73;;;;;;;;;;5053617;28;20381;-82
2024/03/09 10:55:42;;;;;;;9.13;8.32;;;;;;;;;;5053433;28;20398;-82
2024/03/09 10:58:11;;;;;;;8.70;7.85;;;;;;;;;;5053210;28;20383;-82
2024/03/09 11:00:37;;;;;;;9.70;8.80;;;;;;;;;;5052676;28;20386;-83
2024/03/09 11:03:04;;;;;;;8.98;8.10;;;;;;;;;;5043985;28;20469;-82
2024/03/09 11:05:30;;;;;;;8.40;7.57;;;;;;;;;;5052824;28;20385;-82
2024/03/09 11:07:56;;;;;;;17.70;12.83;;;;;;;;;;5052246;28;20447;-82
2024/03/09 11:10:25;;;;;;;50.75;29.63;;;;;;;;;;5053415;28;20399;-82
2024/03/09 11:12:51;;;;;;;11.88;10.77;;;;;;;;;;5053786;28;20456;-82
2024/03/09 11:15:21;;;;;;;12.07;10.82;;;;;;;;;;5053968;28;20916;-82
2024/03/09 11:17:47;;;;;;;8.65;7.85;;;;;;;;;;5052769;28;20432;-82
2024/03/09 11:20:13;;;;;;;8.27;7.50;;;;;;;;;;5053258;28;20381;-82
2024/03/09 11:22:40;;;;;;;8.98;8.18;;;;;;;;;;5053036;28;20388;-82
2024/03/09 11:25:10;;;;;;;13.32;11.95;;;;;;;;;;5052886;28;20373;-82
2024/03/09 11:27:38;;;;;;;8.65;7.93;;;;;;;;;;5052460;28;20432;-82
2024/03/09 11:30:06;;;;;;;9.18;8.38;;;;;;;;;;5052639;28;20377;-82
2024/03/09 11:32:32;;;;;;;9.40;8.50;;;;;;;;;;5052864;28;20409;-82
2024/03/09 11:35:18;;;;;;;7.43;6.72;;;;;;;;;;5052782;28;20758;-82
2024/03/09 11:37:56;;;;;;;8.00;7.30;;;;;;;;;;5052619;28;20415;-82
2024/03/09 11:40:22;;;;;;;9.63;8.73;;;;;;;;;;5040396;28;20374;-82
2024/03/09 11:42:48;;;;;;;12.02;10.88;;;;;;;;;;5052664;28;20431;-82
2024/03/09 11:45:18;;;;;;;9.75;8.85;;;;;;;;;;5052833;28;20728;-82
2024/03/09 11:47:45;;;;;;;8.27;7.57;;;;;;;;;;5052635;28;20405;-82
2024/03/09 11:50:12;;;;;;;7.00;6.40;;;;;;;;;;5052533;28;20543;-82
2024/03/09 11:52:38;;;;;;;6.85;6.00;;;;;;;;;;5052854;28;20389;-82
2024/03/09 11:55:05;;;;;;;6.18;5.63;;;;;;;;;;5052519;28;20390;-82
2024/03/09 11:57:32;;;;;;;6.45;5.82;;;;;;;;;;5052676;28;20381;-82
2024/03/09 11:59:58;;;;;;;5.38;4.93;;;;;;;;;;5052704;28;20385;-82
2024/03/09 12:02:24;;;;;;;6.30;5.70;;;;;;;;;;5052477;28;20447;-82
2024/03/09 12:04:56;;;;;;;6.60;6.00;;;;;;;;;;5052298;28;20715;-82
2024/03/09 12:07:27;;;;;;;6.13;5.53;;;;;;;;;;5051778;28;20471;-82
2024/03/09 12:09:55;;;;;;;6.20;5.55;;;;;;;;;;5053036;28;20409;-82
2024/03/09 12:12:21;;;;;;;6.50;5.90;;;;;;;;;;5052843;28;20456;-82
2024/03/09 12:14:48;;;;;;;6.05;5.53;;;;;;;;;;5052467;28;20750;-83
2024/03/09 12:17:14;;;;;;;5.93;5.43;;;;;;;;;;5052697;28;20384;-83
2024/03/09 12:19:41;;;;;;;5.68;5.18;;;;;;;;;;5057595;28;20689;-83
2024/03/09 12:22:07;;;;;;;5.70;5.20;;;;;;;;;;5057179;28;20442;-83
2024/03/09 12:24:33;;;;;;;4.53;4.13;;;;;;;;;;5057570;28;20377;-83
2024/03/09 12:27:00;;;;;;;4.15;3.75;;;;;;;;;;5056593;28;20935;-82
2024/03/09 12:29:27;;;;;;;4.57;4.18;;;;;;;;;;5056931;28;20381;-82
2024/03/09 12:31:56;;;;;;;3.78;2.40;;;;;;;;;;5056513;28;20389;-83
2024/03/09 12:34:22;;;;;;;3.42;2.97;;;;;;;;;;5056084;28;20397;-83
2024/03/09 12:36:54;;;;;;;3.07;2.80;;;;;;;;;;5057688;28;20485;-83
2024/03/09 12:39:20;;;;;;;2.50;2.30;;;;;;;;;;5056919;28;20405;-83
2024/03/09 12:41:50;;;;;;;3.28;2.60;;;;;;;;;;5055359;28;20913;-83
2024/03/09 12:44:17;;;;;;;2.70;2.50;;;;;;;;;;5056735;28;20389;-83
2024/03/09 12:46:43;;;;;;;2.40;2.20;;;;;;;;;;5055536;28;20427;-83
2024/03/09 12:49:13;;;;;;;2.58;2.30;;;;;;;;;;5056482;28;20397;-83
2024/03/09 12:51:44;;;;;;;2.87;2.57;;;;;;;;;;5056308;28;20442;-83
2024/03/09 12:54:12;;;;;;;3.15;2.85;;;;;;;;;;5056260;28;20457;-83
2024/03/09 12:56:38;;;;;;;3.03;2.70;;;;;;;;;;5057383;28;20377;-83
2024/03/09 12:59:08;;;;;;;3.50;2.53;;;;;;;;;;5056703;28;20382;-83
2024/03/09 13:01:38;;;;;;;2.35;1.90;;;;;;;;;;5044414;28;20386;-83
2024/03/09 13:04:09;;;;;;;2.42;1.52;;;;;;;;;;5054710;28;20914;-83
2024/03/09 13:06:41;;;;;;;2.37;2.17;;;;;;;;;;5055292;28;20431;-83
2024/03/09 13:09:17;;;;;;;2.40;1.92;;;;;;;;;;5057161;28;20381;-83
2024/03/09 13:11:43;;;;;;;1.85;1.50;;;;;;;;;;5056820;28;20381;-83
2024/03/09 13:14:09;;;;;;;2.45;2.25;;;;;;;;;;5055303;28;20381;-83
2024/03/09 13:16:35;;;;;;;2.70;2.17;;;;;;;;;;5056131;28;20385;-83
2024/03/09 13:19:04;;;;;;;2.37;2.10;;;;;;;;;;5055424;28;20728;-83
2024/03/09 13:21:30;;;;;;;2.50;2.00;;;;;;;;;;5055613;28;20392;-83
2024/03/09 13:23:58;;;;;;;1.80;1.70;;;;;;;;;;5055804;28;20397;-83
2024/03/09 13:26:27;;;;;;;1.95;1.80;;;;;;;;;;5054996;28;20488;-83
2024/03/09 13:28:54;;;;;;;3.40;2.70;;;;;;;;;;5056857;28;20435;-83
2024/03/09 13:31:22;;;;;;;2.80;2.60;;;;;;;;;;5056662;28;20801;-82
2024/03/09 13:33:49;;;;;;;1.92;1.77;;;;;;;;;;5056676;28;20409;-83
2024/03/09 13:36:16;;;;;;;2.78;1.80;;;;;;;;;;5056393;28;20701;-83
2024/03/09 13:38:42;;;;;;;2.92;2.50;;;;;;;;;;5056999;28;20386;-83
2024/03/09 13:41:12;;;;;;;1.90;1.67;;;;;;;;;;5056529;28;20385;-83
2024/03/09 13:43:44;;;;;;;2.83;2.60;;;;;;;;;;5048485;28;20374;-83
2024/03/09 13:46:10;;;;;;;2.70;2.42;;;;;;;;;;5055661;28;20452;-83
2024/03/09 13:48:40;;;;;;;3.13;2.60;;;;;;;;;;5055695;28;20380;-83
2024/03/09 13:51:24;;;;;;;3.58;3.20;;;;;;;;;;5056277;28;20380;-83
2024/03/09 13:53:50;;;;;;;3.63;2.97;;;;;;;;;;5055349;28;20386;-83
2024/03/09 13:56:19;;;;;;;3.20;2.83;;;;;;;;;;5056329;28;20439;-83
2024/03/09 13:58:46;;;;;;;2.53;2.28;;;;;;;;;;5055440;28;20435;-83
2024/03/09 14:01:19;;;;;;;3.67;2.90;;;;;;;;;;5055300;28;20382;-83
2024/03/09 14:03:46;;;;;;;2.80;2.50;;;;;;;;;;5054404;28;20716;-82
2024/03/09 14:06:14;;;;;;;2.90;2.60;;;;;;;;;;5042446;28;20993;-83
2024/03/09 14:08:40;;;;;;;3.85;3.33;;;;;;;;;;5055499;28;20385;-83
2024/03/09 14:11:11;;;;;;;4.30;3.63;;;;;;;;;;5054604;28;20384;-82
2024/03/09 14:13:37;;;;;;;11.73;7.72;;;;;;;;;;5054089;28;20382;-82
2024/03/09 14:16:13;;;;;;;9.82;6.85;;;;;;;;;;5054214;28;20389;-83
2024/03/09 14:18:41;;;;;;;2.30;2.10;;;;;;;;;;5052799;28;20388;-82
2024/03/09 14:21:08;;;;;;;5.03;4.57;;;;;;;;;;5054017;28;20464;-82
2024/03/09 14:23:38;;;;;;;3.55;2.85;;;;;;;;;;5053612;28;20386;-82
2024/03/09 14:26:07;;;;;;;27.73;23.65;;;;;;;;;;5053832;28;20436;-82